Time;durP1;ratioP1;P1;durP2;ratioP2;P2;SDS_P1;SDS_P2;PMS_P1;PMS_P2;Temp;Humidity;BMP_temperature;BMP_pressure;BME280_temperature;BME280_humidity;BME280_pressure;Samples;Min_cycle;Max_cycle;Signal;HPM_P1;HPM_P2
2023/09/06 00:02:40;;;;;;;12.00;6.40;;;;;;;;;;103766;1290;544834;-74
2023/09/06 00:06:18;;;;;;;10.50;6.20;;;;;;;;;;103839;1288;544790;-74
2023/09/06 00:09:55;;;;;;;11.40;6.70;;;;;;;;;;103622;1294;545034;-75
2023/09/06 00:13:33;;;;;;;14.90;6.90;;;;;;;;;;104043;1291;544705;-74
2023/09/06 00:17:10;;;;;;;11.90;6.00;;;;;;;;;;103757;1289;545001;-76
2023/09/06 00:20:45;;;;;;;13.00;6.70;;;;;;;;;;103843;1289;544708;-74
2023/09/06 00:24:27;;;;;;;11.50;6.80;;;;;;;;;;103754;1292;545444;-74
2023/09/06 00:28:06;;;;;;;12.10;6.80;;;;;;;;;;103892;1291;544610;-74
2023/09/06 00:31:42;;;;;;;12.40;6.50;;;;;;;;;;103761;1291;544988;-74
2023/09/06 00:35:20;;;;;;;11.10;7.30;;;;;;;;;;103775;1289;544985;-74
2023/09/06 00:38:57;;;;;;;13.60;7.70;;;;;;;;;;103775;1292;545426;-74
2023/09/06 00:42:35;;;;;;;14.00;9.10;;;;;;;;;;103770;1292;545799;-76
2023/09/06 00:46:12;;;;;;;13.50;9.00;;;;;;;;;;103666;1292;544959;-75
2023/09/06 00:49:50;;;;;;;16.80;9.00;;;;;;;;;;103651;1293;545303;-74
2023/09/06 00:53:27;;;;;;;12.60;8.50;;;;;;;;;;103946;1289;545299;-75
2023/09/06 00:57:05;;;;;;;13.20;7.80;;;;;;;;;;103996;1289;545649;-78
2023/09/06 01:00:43;;;;;;;12.00;7.50;;;;;;;;;;103667;1292;545415;-77
2023/09/06 01:04:19;;;;;;;14.30;8.00;;;;;;;;;;103683;1292;544936;-75
2023/09/06 01:08:03;;;;;;;15.30;7.60;;;;;;;;;;103753;1290;544806;-75
2023/09/06 01:11:37;;;;;;;12.80;8.10;;;;;;;;;;103695;1292;545047;-77
2023/09/06 01:15:12;;;;;;;11.70;7.80;;;;;;;;;;103739;1291;545075;-76
2023/09/06 01:18:49;;;;;;;12.30;7.50;;;;;;;;;;104008;1289;544986;-74
2023/09/06 01:22:36;;;;;;;12.30;6.70;;;;;;;;;;103586;1291;548576;-74
2023/09/06 01:26:05;;;;;;;14.60;7.40;;;;;;;;;;103726;1291;545318;-74
2023/09/06 01:29:41;;;;;;;12.60;7.80;;;;;;;;;;103614;1291;544971;-77
2023/09/06 01:33:25;;;;;;;14.20;7.60;;;;;;;;;;103536;1292;545491;-74
2023/09/06 01:37:02;;;;;;;12.90;7.30;;;;;;;;;;103649;1291;547956;-74
2023/09/06 01:40:34;;;;;;;12.40;6.60;;;;;;;;;;103743;1291;544964;-74
2023/09/06 01:44:17;;;;;;;9.40;5.60;;;;;;;;;;103546;1290;548093;-74
2023/09/06 01:47:49;;;;;;;11.30;6.40;;;;;;;;;;103764;1292;544770;-74
2023/09/06 01:51:26;;;;;;;11.60;7.00;;;;;;;;;;103595;1290;545913;-74
2023/09/06 01:55:05;;;;;;;10.40;6.90;;;;;;;;;;103836;1289;545357;-76
2023/09/06 01:58:41;;;;;;;13.50;7.10;;;;;;;;;;103964;1291;544794;-75
2023/09/06 02:02:19;;;;;;;12.60;6.80;;;;;;;;;;103897;1289;544932;-77
2023/09/06 02:05:52;;;;;;;14.10;6.20;;;;;;;;;;103867;1292;545029;-75
2023/09/06 02:09:35;;;;;;;9.80;5.60;;;;;;;;;;103719;1289;545094;-77
2023/09/06 02:13:12;;;;;;;8.50;4.70;;;;;;;;;;103950;1289;545457;-75
2023/09/06 02:16:50;;;;;;;9.20;5.10;;;;;;;;;;103841;1291;544836;-75
2023/09/06 02:20:28;;;;;;;10.40;5.50;;;;;;;;;;103717;1295;545708;-76
2023/09/06 02:24:08;;;;;;;8.60;5.20;;;;;;;;;;103727;1291;546070;-75
2023/09/06 02:27:42;;;;;;;8.80;4.70;;;;;;;;;;103875;1294;544736;-76
2023/09/06 02:31:20;;;;;;;10.30;4.40;;;;;;;;;;103710;1295;544946;-75
2023/09/06 02:34:57;;;;;;;8.40;4.40;;;;;;;;;;103643;1291;545933;-74
2023/09/06 02:38:35;;;;;;;8.50;4.60;;;;;;;;;;103824;1301;545057;-74
2023/09/06 02:42:12;;;;;;;10.20;5.10;;;;;;;;;;103790;1291;545391;-74
2023/09/06 02:45:53;;;;;;;14.10;5.20;;;;;;;;;;104032;1291;545060;-75
2023/09/06 02:49:34;;;;;;;12.20;4.90;;;;;;;;;;103875;1300;545920;-76
2023/09/06 02:53:04;;;;;;;11.60;5.40;;;;;;;;;;103773;1291;545052;-78
2023/09/06 02:56:45;;;;;;;18.50;7.80;;;;;;;;;;103638;1292;544803;-75
2023/09/06 03:00:26;;;;;;;16.70;9.20;;;;;;;;;;103976;1292;544868;-77
2023/09/06 03:04:06;;;;;;;15.80;8.00;;;;;;;;;;103968;1289;545619;-75
2023/09/06 03:07:34;;;;;;;14.10;7.50;;;;;;;;;;104104;1289;544780;-74
2023/09/06 03:11:18;;;;;;;14.80;8.30;;;;;;;;;;103596;1295;547997;-79
2023/09/06 03:14:55;;;;;;;18.00;11.90;;;;;;;;;;103683;1292;547806;-77
2023/09/06 03:18:33;;;;;;;17.50;12.50;;;;;;;;;;103631;1292;547975;-77
2023/09/06 03:22:06;;;;;;;13.80;10.40;;;;;;;;;;103756;1289;545378;-74
2023/09/06 03:25:42;;;;;;;22.20;13.00;;;;;;;;;;103780;1295;544772;-76
2023/09/06 03:29:22;;;;;;;18.40;14.30;;;;;;;;;;104016;1290;544970;-76
2023/09/06 03:33:00;;;;;;;22.10;15.70;;;;;;;;;;103674;1290;545147;-75
2023/09/06 03:36:35;;;;;;;27.70;19.10;;;;;;;;;;104053;1291;544763;-74
2023/09/06 03:40:25;;;;;;;24.30;17.90;;;;;;;;;;103725;1292;544920;-77
2023/09/06 03:43:49;;;;;;;23.40;16.00;;;;;;;;;;103693;1295;545597;-76
2023/09/06 03:47:26;;;;;;;17.80;11.90;;;;;;;;;;103639;1292;544979;-78
2023/09/06 03:51:04;;;;;;;15.70;10.50;;;;;;;;;;103817;1292;544810;-77
2023/09/06 03:54:43;;;;;;;15.00;8.70;;;;;;;;;;103530;1293;545646;-75
2023/09/06 03:58:19;;;;;;;12.20;7.50;;;;;;;;;;103746;1292;545052;-75
2023/09/06 04:02:02;;;;;;;13.10;7.70;;;;;;;;;;103547;1295;548040;-74
2023/09/06 04:06:06;;;;;;;13.60;7.80;;;;;;;;;;103558;1295;547869;-78
2023/09/06 04:09:12;;;;;;;12.80;6.90;;;;;;;;;;103880;1289;545589;-76
2023/09/06 04:12:55;;;;;;;13.10;6.80;;;;;;;;;;103735;1289;546411;-75
2023/09/06 04:16:33;;;;;;;10.80;6.40;;;;;;;;;;103452;1295;544931;-74
2023/09/06 04:20:19;;;;;;;12.60;7.50;;;;;;;;;;103873;1289;545028;-76
2023/09/06 04:23:48;;;;;;;16.00;7.70;;;;;;;;;;103737;1289;544855;-77
2023/09/06 04:27:25;;;;;;;42.10;8.90;;;;;;;;;;103888;1289;544898;-75
2023/09/06 04:31:03;;;;;;;37.30;9.50;;;;;;;;;;104012;1289;546102;-78
2023/09/06 04:34:40;;;;;;;37.80;8.70;;;;;;;;;;103743;1289;545447;-75
2023/09/06 04:38:18;;;;;;;31.50;8.90;;;;;;;;;;103755;1289;545279;-78
2023/09/06 04:41:55;;;;;;;21.50;8.60;;;;;;;;;;103750;1291;545056;-77
2023/09/06 04:45:32;;;;;;;16.40;8.10;;;;;;;;;;103723;1290;545406;-74
2023/09/06 04:49:10;;;;;;;16.60;7.60;;;;;;;;;;103638;1291;544776;-74
2023/09/06 04:52:45;;;;;;;16.00;6.90;;;;;;;;;;104114;1288;544917;-74
2023/09/06 04:56:34;;;;;;;17.00;7.70;;;;;;;;;;103276;1294;548435;-77
2023/09/06 05:00:23;;;;;;;16.00;7.60;;;;;;;;;;103746;1291;544996;-76
2023/09/06 05:03:49;;;;;;;12.80;6.90;;;;;;;;;;103810;1287;547948;-77
2023/09/06 05:07:19;;;;;;;17.40;7.20;;;;;;;;;;103794;1288;544867;-75
2023/09/06 05:10:58;;;;;;;15.90;7.90;;;;;;;;;;103648;1291;544974;-78
2023/09/06 05:14:36;;;;;;;19.70;8.10;;;;;;;;;;103807;1291;545146;-76
2023/09/06 05:18:14;;;;;;;15.00;7.60;;;;;;;;;;103699;1290;544747;-74
2023/09/06 05:21:50;;;;;;;13.50;7.40;;;;;;;;;;104083;1291;544945;-77
2023/09/06 05:25:34;;;;;;;15.10;7.60;;;;;;;;;;103603;1291;548143;-75
2023/09/06 05:29:05;;;;;;;14.50;7.10;;;;;;;;;;104085;1290;545045;-78
2023/09/06 05:32:43;;;;;;;13.80;7.00;;;;;;;;;;103747;1292;545065;-77
2023/09/06 05:36:21;;;;;;;14.50;7.10;;;;;;;;;;103756;1298;544774;-78
2023/09/06 05:39:57;;;;;;;12.80;6.20;;;;;;;;;;103763;1292;545329;-75
2023/09/06 05:43:35;;;;;;;13.60;7.30;;;;;;;;;;103631;1292;544792;-75
2023/09/06 05:47:13;;;;;;;13.40;6.90;;;;;;;;;;103732;1295;546026;-76
2023/09/06 05:50:50;;;;;;;14.80;6.70;;;;;;;;;;103692;1291;544759;-74
2023/09/06 05:54:28;;;;;;;16.80;7.20;;;;;;;;;;103608;1291;545536;-74
2023/09/06 05:58:05;;;;;;;18.00;7.80;;;;;;;;;;103811;1292;545679;-74
2023/09/06 06:01:43;;;;;;;15.20;7.10;;;;;;;;;;103583;1291;545878;-74
2023/09/06 06:05:20;;;;;;;16.70;6.90;;;;;;;;;;103981;1291;545053;-75
2023/09/06 06:08:57;;;;;;;14.30;6.40;;;;;;;;;;103895;1297;545568;-74
2023/09/06 06:12:37;;;;;;;17.80;6.80;;;;;;;;;;103697;1291;545674;-75
2023/09/06 06:16:18;;;;;;;18.00;8.20;;;;;;;;;;103677;1291;548031;-78
2023/09/06 06:19:50;;;;;;;17.20;7.10;;;;;;;;;;103748;1288;545410;-78
2023/09/06 06:23:27;;;;;;;21.00;6.40;;;;;;;;;;104045;1291;545062;-75
2023/09/06 06:27:05;;;;;;;18.50;5.30;;;;;;;;;;103810;1291;545357;-76
2023/09/06 06:30:42;;;;;;;12.70;5.00;;;;;;;;;;103751;1289;544922;-76
2023/09/06 06:34:20;;;;;;;18.20;4.70;;;;;;;;;;103745;1292;545965;-75
2023/09/06 06:37:58;;;;;;;10.70;5.00;;;;;;;;;;103722;1291;544815;-76
2023/09/06 06:41:35;;;;;;;16.00;5.60;;;;;;;;;;103803;1290;545148;-75
2023/09/06 06:45:12;;;;;;;14.90;4.80;;;;;;;;;;103691;1288;544839;-75
2023/09/06 06:48:50;;;;;;;16.20;4.70;;;;;;;;;;103977;1291;545047;-77
2023/09/06 06:52:36;;;;;;;15.70;4.40;;;;;;;;;;103641;1291;548128;-77
2023/09/06 06:56:04;;;;;;;11.10;4.60;;;;;;;;;;104195;1285;545048;-75
2023/09/06 06:59:44;;;;;;;11.30;4.50;;;;;;;;;;103749;1295;545264;-74
2023/09/06 07:03:19;;;;;;;13.60;4.70;;;;;;;;;;103862;1294;546184;-75
2023/09/06 07:06:57;;;;;;;20.00;5.20;;;;;;;;;;103782;1291;544882;-75
2023/09/06 07:10:34;;;;;;;18.90;5.00;;;;;;;;;;103794;1289;544863;-78
2023/09/06 07:14:08;;;;;;;16.60;4.50;;;;;;;;;;103924;1289;545773;-75
2023/09/06 07:17:51;;;;;;;17.70;5.40;;;;;;;;;;103790;1290;546226;-75
2023/09/06 07:21:28;;;;;;;19.50;5.70;;;;;;;;;;104058;1289;545465;-77
2023/09/06 07:25:08;;;;;;;23.00;5.00;;;;;;;;;;103968;1289;544950;-75
2023/09/06 07:28:45;;;;;;;17.70;5.30;;;;;;;;;;103761;1298;546067;-75
2023/09/06 07:32:21;;;;;;;11.30;4.10;;;;;;;;;;103769;1289;545386;-76
2023/09/06 07:36:04;;;;;;;10.80;3.80;;;;;;;;;;103670;1292;547780;-78
2023/09/06 07:39:36;;;;;;;18.30;4.70;;;;;;;;;;103744;1292;544954;-77
2023/09/06 07:43:13;;;;;;;13.20;4.30;;;;;;;;;;103800;1292;545731;-76
2023/09/06 07:46:51;;;;;;;18.10;4.80;;;;;;;;;;103728;1292;544791;-75
2023/09/06 07:50:28;;;;;;;15.00;4.90;;;;;;;;;;103929;1293;544904;-75
2023/09/06 07:54:05;;;;;;;11.20;4.40;;;;;;;;;;103759;1291;545986;-75
2023/09/06 07:57:44;;;;;;;15.50;5.10;;;;;;;;;;103780;1289;545311;-75
2023/09/06 08:01:20;;;;;;;21.50;5.80;;;;;;;;;;103781;1297;545650;-75
2023/09/06 08:04:58;;;;;;;26.60;6.40;;;;;;;;;;103737;1291;544859;-74
2023/09/06 08:08:35;;;;;;;23.30;6.30;;;;;;;;;;104003;1286;545443;-76
2023/09/06 08:12:12;;;;;;;20.10;6.00;;;;;;;;;;103740;1294;544853;-75
2023/09/06 08:15:46;;;;;;;17.90;6.20;;;;;;;;;;103882;1289;545569;-75
2023/09/06 08:19:29;;;;;;;18.80;6.00;;;;;;;;;;103816;1292;544763;-77
2023/09/06 08:23:06;;;;;;;16.00;5.10;;;;;;;;;;103551;1292;545038;-73
2023/09/06 08:26:45;;;;;;;10.70;3.90;;;;;;;;;;104102;1285;546464;-76
2023/09/06 08:30:21;;;;;;;10.50;4.20;;;;;;;;;;103809;1292;544822;-74
2023/09/06 08:33:59;;;;;;;8.30;3.60;;;;;;;;;;103754;1292;545058;-76
2023/09/06 08:37:36;;;;;;;8.10;3.40;;;;;;;;;;104040;1289;545066;-75
2023/09/06 08:41:14;;;;;;;11.70;4.10;;;;;;;;;;104001;1289;544799;-76
2023/09/06 08:44:52;;;;;;;9.00;3.70;;;;;;;;;;103739;1289;545075;-76
2023/09/06 08:48:29;;;;;;;13.10;4.10;;;;;;;;;;103814;1289;544907;-76
2023/09/06 08:52:06;;;;;;;8.30;3.90;;;;;;;;;;103743;1289;545956;-76
2023/09/06 08:55:44;;;;;;;7.80;3.40;;;;;;;;;;103745;1290;544978;-75
2023/09/06 08:59:21;;;;;;;8.40;3.90;;;;;;;;;;103766;1290;544793;-75
2023/09/06 09:02:59;;;;;;;10.30;3.90;;;;;;;;;;103722;1289;545002;-75
2023/09/06 09:06:40;;;;;;;31.80;5.30;;;;;;;;;;103665;1291;545680;-75
2023/09/06 09:10:15;;;;;;;16.80;4.80;;;;;;;;;;103717;1293;545374;-74
2023/09/06 09:13:51;;;;;;;7.60;3.60;;;;;;;;;;103682;1289;545958;-72
2023/09/06 09:17:37;;;;;;;9.30;3.70;;;;;;;;;;103596;1290;547940;-75
2023/09/06 09:21:10;;;;;;;8.20;4.10;;;;;;;;;;103799;1289;545247;-75
2023/09/06 09:24:43;;;;;;;10.20;4.40;;;;;;;;;;104201;1286;544814;-75
2023/09/06 09:28:21;;;;;;;11.30;4.50;;;;;;;;;;103744;1293;545513;-73
2023/09/06 09:32:22;;;;;;;10.40;4.10;;;;;;;;;;103660;1289;547939;-74
2023/09/06 09:35:36;;;;;;;12.20;4.20;;;;;;;;;;103715;1289;544790;-73
2023/09/06 09:39:13;;;;;;;10.40;4.40;;;;;;;;;;103682;1289;544865;-72
2023/09/06 09:42:51;;;;;;;13.30;5.30;;;;;;;;;;103763;1290;544811;-73
2023/09/06 09:46:29;;;;;;;14.20;4.70;;;;;;;;;;103712;1292;544957;-72
2023/09/06 09:50:05;;;;;;;13.70;5.40;;;;;;;;;;103731;1292;545484;-72
2023/09/06 09:53:43;;;;;;;15.40;5.60;;;;;;;;;;103789;1296;544753;-73
2023/09/06 09:57:23;;;;;;;10.30;4.60;;;;;;;;;;103867;1289;544870;-74
2023/09/06 10:00:59;;;;;;;13.90;4.00;;;;;;;;;;103678;1295;545060;-73
2023/09/06 10:04:36;;;;;;;11.00;4.60;;;;;;;;;;103670;1291;544947;-75
2023/09/06 10:08:13;;;;;;;12.60;4.60;;;;;;;;;;103673;1293;544745;-75
2023/09/06 10:11:51;;;;;;;12.80;3.90;;;;;;;;;;103735;1292;544940;-74
2023/09/06 10:15:28;;;;;;;10.70;3.60;;;;;;;;;;103758;1288;545531;-72
2023/09/06 10:19:06;;;;;;;10.10;4.00;;;;;;;;;;103793;1292;544887;-74
2023/09/06 10:22:48;;;;;;;10.60;3.70;;;;;;;;;;103797;1292;544896;-71
2023/09/06 10:26:26;;;;;;;8.30;3.70;;;;;;;;;;103785;1289;545579;-74
2023/09/06 10:29:59;;;;;;;10.40;3.90;;;;;;;;;;103735;1290;544946;-73
2023/09/06 10:33:42;;;;;;;9.80;4.10;;;;;;;;;;103803;1292;545477;-74
2023/09/06 10:37:15;;;;;;;13.00;4.40;;;;;;;;;;103788;1289;545134;-73
2023/09/06 10:40:50;;;;;;;10.60;3.60;;;;;;;;;;103703;1292;545383;-75
2023/09/06 10:44:29;;;;;;;10.80;4.30;;;;;;;;;;103725;1291;545058;-73
2023/09/06 10:48:09;;;;;;;10.10;4.90;;;;;;;;;;103626;1292;545346;-75
2023/09/06 10:51:55;;;;;;;14.30;4.90;;;;;;;;;;103753;1292;545500;-73
2023/09/06 10:55:22;;;;;;;13.90;4.70;;;;;;;;;;103996;1289;545099;-76
2023/09/06 10:58:57;;;;;;;9.90;4.20;;;;;;;;;;103710;1292;544725;-75
2023/09/06 11:02:36;;;;;;;11.30;4.30;;;;;;;;;;103573;1295;544893;-73
2023/09/06 11:06:13;;;;;;;8.70;4.30;;;;;;;;;;103741;1289;544807;-75
2023/09/06 11:09:50;;;;;;;14.50;5.20;;;;;;;;;;103639;1291;545636;-74
2023/09/06 11:13:30;;;;;;;9.90;4.30;;;;;;;;;;104044;1292;544986;-72
2023/09/06 11:17:05;;;;;;;10.60;3.90;;;;;;;;;;104108;1285;545482;-72
2023/09/06 11:20:46;;;;;;;12.20;4.20;;;;;;;;;;104067;1289;545219;-74
2023/09/06 11:24:31;;;;;;;10.90;4.20;;;;;;;;;;103961;1289;544937;-74
2023/09/06 11:27:59;;;;;;;12.60;4.30;;;;;;;;;;103812;1289;544794;-72
2023/09/06 11:31:33;;;;;;;8.50;4.00;;;;;;;;;;104055;1289;546159;-74
2023/09/06 11:35:13;;;;;;;8.40;3.70;;;;;;;;;;103945;1289;544762;-72
2023/09/06 11:38:57;;;;;;;8.40;3.80;;;;;;;;;;103710;1295;545195;-72
2023/09/06 11:42:34;;;;;;;8.10;3.60;;;;;;;;;;104368;1284;546502;-72
2023/09/06 11:46:14;;;;;;;7.10;3.50;;;;;;;;;;103754;1290;545428;-74
2023/09/06 11:49:49;;;;;;;11.40;3.20;;;;;;;;;;103493;1297;545181;-75
2023/09/06 11:53:25;;;;;;;7.90;3.80;;;;;;;;;;103761;1293;544840;-75
2023/09/06 11:57:04;;;;;;;8.00;3.70;;;;;;;;;;103691;1291;545069;-72
2023/09/06 12:00:45;;;;;;;6.60;3.50;;;;;;;;;;103981;1293;545987;-73
2023/09/06 12:04:22;;;;;;;7.10;3.90;;;;;;;;;;103776;1293;544777;-72
2023/09/06 12:07:55;;;;;;;7.50;3.80;;;;;;;;;;103642;1291;544757;-72
2023/09/06 12:11:34;;;;;;;9.20;4.60;;;;;;;;;;103755;1297;545052;-72
2023/09/06 12:15:14;;;;;;;10.80;7.60;;;;;;;;;;103732;1290;544718;-72
2023/09/06 12:18:50;;;;;;;16.40;13.70;;;;;;;;;;103961;1289;545044;-73
2023/09/06 12:22:25;;;;;;;10.00;6.80;;;;;;;;;;103643;1291;544900;-71
2023/09/06 12:26:04;;;;;;;9.30;4.80;;;;;;;;;;103784;1294;544943;-72
2023/09/06 12:29:42;;;;;;;9.60;4.70;;;;;;;;;;104024;1292;545874;-74
2023/09/06 12:33:18;;;;;;;8.70;3.90;;;;;;;;;;103690;1295;545031;-74
2023/09/06 12:36:55;;;;;;;7.20;3.60;;;;;;;;;;103775;1292;545034;-74
2023/09/06 12:40:33;;;;;;;8.70;4.00;;;;;;;;;;103824;1289;545112;-75
2023/09/06 12:44:10;;;;;;;7.80;4.10;;;;;;;;;;103667;1291;546028;-75
2023/09/06 12:47:48;;;;;;;8.00;3.50;;;;;;;;;;103735;1295;544743;-75
2023/09/06 12:51:31;;;;;;;11.60;4.30;;;;;;;;;;103488;1292;549082;-72
2023/09/06 12:55:05;;;;;;;9.00;4.10;;;;;;;;;;103804;1302;545347;-73
2023/09/06 12:58:44;;;;;;;7.60;4.20;;;;;;;;;;103707;1289;545238;-72
2023/09/06 13:02:18;;;;;;;7.40;3.70;;;;;;;;;;103774;1290;545977;-73
2023/09/06 13:05:55;;;;;;;8.90;4.30;;;;;;;;;;103927;1301;544692;-74
2023/09/06 13:19:56;;;;;;;7.80;4.20;;;;;;;;;;104390;1286;550115;-72
2023/09/06 13:22:47;;;;;;;8.10;3.50;;;;;;;;;;103877;1288;544731;-74
2023/09/06 13:26:26;;;;;;;7.30;3.90;;;;;;;;;;103640;1291;545150;-74
2023/09/06 13:30:09;;;;;;;8.10;3.10;;;;;;;;;;103610;1289;548024;-74
2023/09/06 13:33:40;;;;;;;9.00;4.10;;;;;;;;;;103704;1291;545511;-73
2023/09/06 13:37:18;;;;;;;7.50;3.30;;;;;;;;;;103785;1289;545038;-73
2023/09/06 13:41:01;;;;;;;6.70;3.00;;;;;;;;;;103273;1294;548444;-73
2023/09/06 13:44:33;;;;;;;7.60;3.50;;;;;;;;;;103741;1292;544972;-76
2023/09/06 13:48:10;;;;;;;7.40;3.60;;;;;;;;;;103986;1295;545618;-72
2023/09/06 13:51:48;;;;;;;9.80;6.00;;;;;;;;;;103849;1288;545054;-74
2023/09/06 13:55:25;;;;;;;8.30;3.40;;;;;;;;;;103639;1292;544741;-75
2023/09/06 13:59:08;;;;;;;8.30;3.70;;;;;;;;;;103559;1291;548176;-72
2023/09/06 14:02:40;;;;;;;7.20;3.10;;;;;;;;;;103755;1290;545659;-74
2023/09/06 14:06:18;;;;;;;7.30;2.90;;;;;;;;;;103841;1291;545484;-74
2023/09/06 14:09:56;;;;;;;7.70;4.20;;;;;;;;;;103651;1297;545338;-71
2023/09/06 14:13:33;;;;;;;7.30;4.00;;;;;;;;;;103820;1292;545766;-72
2023/09/06 14:17:10;;;;;;;8.60;4.30;;;;;;;;;;103725;1289;544818;-74
2023/09/06 14:20:54;;;;;;;7.10;3.90;;;;;;;;;;103531;1292;548036;-72
2023/09/06 14:24:25;;;;;;;7.70;3.60;;;;;;;;;;103667;1291;545058;-73
2023/09/06 14:28:02;;;;;;;7.30;3.60;;;;;;;;;;104178;1287;545608;-71
2023/09/06 14:31:40;;;;;;;7.50;3.40;;;;;;;;;;104149;1289;545256;-73
2023/09/06 14:35:17;;;;;;;7.30;3.10;;;;;;;;;;103819;1289;545400;-73
2023/09/06 14:38:55;;;;;;;20.40;17.70;;;;;;;;;;103793;1289;545437;-74
2023/09/06 14:42:32;;;;;;;8.90;5.00;;;;;;;;;;103806;1292;545886;-74
2023/09/06 14:46:14;;;;;;;7.40;3.50;;;;;;;;;;103589;1292;544808;-76
2023/09/06 14:49:52;;;;;;;8.20;3.90;;;;;;;;;;103819;1289;544911;-73
2023/09/06 14:53:31;;;;;;;6.20;3.20;;;;;;;;;;103998;1290;545636;-72
2023/09/06 14:57:07;;;;;;;7.20;3.40;;;;;;;;;;103952;1289;544966;-72
2023/09/06 15:00:45;;;;;;;9.50;4.40;;;;;;;;;;103604;1291;544983;-71
2023/09/06 15:04:21;;;;;;;8.90;4.90;;;;;;;;;;103722;1289;545044;-73
2023/09/06 15:08:00;;;;;;;7.50;3.90;;;;;;;;;;103627;1291;545414;-74
2023/09/06 15:11:36;;;;;;;5.90;2.80;;;;;;;;;;103785;1290;544723;-73
2023/09/06 15:15:14;;;;;;;6.20;2.80;;;;;;;;;;103630;1291;545493;-73
2023/09/06 15:18:51;;;;;;;7.00;3.30;;;;;;;;;;103797;1289;544798;-71
2023/09/06 15:22:30;;;;;;;6.50;3.10;;;;;;;;;;103753;1290;545841;-76
2023/09/06 15:26:06;;;;;;;7.50;3.10;;;;;;;;;;103961;1288;545053;-75
2023/09/06 15:29:44;;;;;;;7.40;2.80;;;;;;;;;;103733;1289;544882;-73
2023/09/06 15:33:22;;;;;;;7.00;3.20;;;;;;;;;;103775;1289;545724;-73
2023/09/06 15:37:11;;;;;;;7.80;2.90;;;;;;;;;;103718;1294;548587;-74
2023/09/06 15:40:37;;;;;;;7.50;3.30;;;;;;;;;;103798;1289;545029;-73
2023/09/06 15:44:15;;;;;;;6.60;3.10;;;;;;;;;;103684;1291;545472;-72
2023/09/06 15:47:52;;;;;;;7.40;3.40;;;;;;;;;;103713;1290;545382;-73
2023/09/06 15:51:29;;;;;;;11.00;6.50;;;;;;;;;;103752;1295;545007;-74
2023/09/06 15:55:07;;;;;;;9.50;5.00;;;;;;;;;;104463;1283;545700;-72
2023/09/06 15:58:44;;;;;;;8.00;3.90;;;;;;;;;;103957;1290;544808;-73
2023/09/06 16:02:21;;;;;;;9.50;5.60;;;;;;;;;;103647;1291;544714;-76
2023/09/06 16:05:59;;;;;;;9.60;4.60;;;;;;;;;;103671;1291;545567;-72
2023/09/06 16:09:37;;;;;;;10.70;5.10;;;;;;;;;;103711;1289;545910;-74
2023/09/06 16:13:14;;;;;;;12.00;6.40;;;;;;;;;;103710;1289;544776;-73
2023/09/06 16:16:51;;;;;;;12.40;7.20;;;;;;;;;;103886;1290;544945;-76
2023/09/06 16:20:29;;;;;;;11.80;6.40;;;;;;;;;;103437;1295;544782;-75
2023/09/06 16:24:07;;;;;;;9.90;4.90;;;;;;;;;;104072;1289;544965;-72
2023/09/06 16:27:41;;;;;;;9.80;4.60;;;;;;;;;;103881;1289;544880;-71
2023/09/06 16:31:22;;;;;;;8.20;3.80;;;;;;;;;;103860;1289;544956;-74
2023/09/06 16:34:59;;;;;;;8.30;3.50;;;;;;;;;;103715;1289;545307;-73
2023/09/06 16:38:36;;;;;;;11.10;3.90;;;;;;;;;;104174;1286;545015;-74
2023/09/06 16:42:16;;;;;;;8.20;3.80;;;;;;;;;;103611;1292;545815;-73
2023/09/06 16:45:52;;;;;;;11.80;4.20;;;;;;;;;;103682;1289;544859;-73
2023/09/06 16:49:28;;;;;;;10.70;3.90;;;;;;;;;;103614;1291;544975;-73
2023/09/06 16:53:06;;;;;;;10.40;3.70;;;;;;;;;;103768;1290;545162;-74
2023/09/06 16:56:44;;;;;;;10.60;4.10;;;;;;;;;;103715;1290;544840;-75
2023/09/06 17:00:21;;;;;;;16.80;5.80;;;;;;;;;;104084;1289;545014;-74
2023/09/06 17:03:55;;;;;;;12.00;4.60;;;;;;;;;;104051;1288;545526;-75
2023/09/06 17:07:37;;;;;;;10.20;4.90;;;;;;;;;;103840;1289;544936;-76
2023/09/06 17:11:16;;;;;;;12.30;4.10;;;;;;;;;;103628;1291;544794;-74
2023/09/06 17:14:54;;;;;;;13.20;3.70;;;;;;;;;;103916;1289;544988;-76
2023/09/06 17:18:30;;;;;;;9.00;3.80;;;;;;;;;;103787;1295;545029;-76
2023/09/06 17:22:07;;;;;;;8.90;3.90;;;;;;;;;;103829;1289;545486;-75
2023/09/06 17:25:49;;;;;;;10.70;4.00;;;;;;;;;;103764;1300;544729;-73
2023/09/06 17:29:22;;;;;;;11.00;4.00;;;;;;;;;;103864;1292;544786;-72
2023/09/06 17:33:06;;;;;;;7.90;3.50;;;;;;;;;;103623;1296;545453;-74
2023/09/06 17:36:38;;;;;;;9.00;4.10;;;;;;;;;;103800;1289;544936;-72
2023/09/06 17:40:15;;;;;;;9.30;4.10;;;;;;;;;;104114;1286;545116;-76
2023/09/06 17:43:52;;;;;;;9.10;4.10;;;;;;;;;;103765;1290;544772;-76
2023/09/06 17:47:30;;;;;;;12.00;4.60;;;;;;;;;;103768;1289;546073;-72
2023/09/06 17:51:10;;;;;;;12.20;4.40;;;;;;;;;;103878;1294;545454;-72
2023/09/06 17:54:46;;;;;;;13.80;5.20;;;;;;;;;;103791;1291;544792;-76
2023/09/06 17:58:22;;;;;;;11.70;5.20;;;;;;;;;;103787;1289;545010;-73
2023/09/06 18:01:59;;;;;;;13.60;6.20;;;;;;;;;;103743;1292;545001;-74
2023/09/06 18:05:38;;;;;;;14.70;7.40;;;;;;;;;;103935;1289;545706;-74
2023/09/06 18:09:14;;;;;;;14.70;8.90;;;;;;;;;;103837;1289;544821;-73
2023/09/06 18:12:53;;;;;;;14.70;9.60;;;;;;;;;;103801;1290;544782;-75
2023/09/06 18:16:32;;;;;;;15.40;9.30;;;;;;;;;;103824;1288;545506;-74
2023/09/06 18:20:09;;;;;;;14.90;10.00;;;;;;;;;;104724;1280;544918;-75
2023/09/06 18:23:47;;;;;;;18.00;11.90;;;;;;;;;;103738;1292;545515;-75
2023/09/06 18:27:24;;;;;;;17.60;10.80;;;;;;;;;;103789;1289;544759;-73
2023/09/06 18:31:00;;;;;;;16.80;11.20;;;;;;;;;;103751;1289;545163;-74
2023/09/06 18:34:36;;;;;;;15.80;11.20;;;;;;;;;;103736;1291;545527;-73
2023/09/06 18:38:15;;;;;;;17.10;11.90;;;;;;;;;;104027;1288;545006;-74
2023/09/06 18:41:51;;;;;;;18.20;12.00;;;;;;;;;;103773;1290;544825;-74
2023/09/06 18:45:30;;;;;;;16.30;10.90;;;;;;;;;;104053;1289;544840;-73
2023/09/06 18:49:07;;;;;;;15.00;10.70;;;;;;;;;;103790;1292;545906;-73
2023/09/06 18:52:41;;;;;;;16.00;11.30;;;;;;;;;;103842;1290;544790;-73
2023/09/06 18:56:34;;;;;;;18.50;12.10;;;;;;;;;;103673;1292;547810;-72
2023/09/06 19:00:02;;;;;;;15.40;12.60;;;;;;;;;;103635;1295;544794;-76
2023/09/06 19:03:40;;;;;;;18.10;13.80;;;;;;;;;;103668;1293;544938;-74
2023/09/06 19:07:16;;;;;;;16.70;13.60;;;;;;;;;;103704;1289;544798;-74
2023/09/06 19:10:53;;;;;;;15.20;12.70;;;;;;;;;;103862;1289;545033;-75
2023/09/06 19:14:31;;;;;;;17.70;13.60;;;;;;;;;;103895;1289;544741;-73
2023/09/06 19:18:16;;;;;;;18.30;13.30;;;;;;;;;;104234;1284;545310;-73
2023/09/06 19:21:47;;;;;;;17.40;12.70;;;;;;;;;;103718;1290;545527;-73
2023/09/06 19:25:29;;;;;;;16.40;11.90;;;;;;;;;;104024;1286;548462;-74
2023/09/06 19:29:01;;;;;;;18.20;10.50;;;;;;;;;;103768;1289;545066;-74
2023/09/06 19:32:39;;;;;;;16.60;10.40;;;;;;;;;;103700;1291;545083;-73
2023/09/06 19:36:16;;;;;;;14.80;10.90;;;;;;;;;;103732;1292;544891;-74
2023/09/06 19:39:53;;;;;;;16.40;9.60;;;;;;;;;;103726;1291;544772;-75
2023/09/06 19:43:31;;;;;;;14.20;9.40;;;;;;;;;;103688;1292;544937;-73
2023/09/06 19:47:10;;;;;;;15.40;8.70;;;;;;;;;;103823;1290;545411;-76
2023/09/06 19:50:46;;;;;;;13.20;8.30;;;;;;;;;;103756;1289;545398;-74
2023/09/06 19:54:23;;;;;;;13.20;7.80;;;;;;;;;;103809;1291;544857;-75
2023/09/06 19:58:06;;;;;;;21.90;10.20;;;;;;;;;;103668;1292;550028;-75
2023/09/06 20:01:38;;;;;;;17.40;9.60;;;;;;;;;;103547;1298;545405;-75
2023/09/06 20:05:15;;;;;;;13.30;8.20;;;;;;;;;;104085;1288;545039;-75
2023/09/06 20:08:53;;;;;;;13.80;8.00;;;;;;;;;;104012;1289;544801;-73
2023/09/06 20:12:30;;;;;;;14.90;8.40;;;;;;;;;;103702;1291;544963;-73
2023/09/06 20:16:07;;;;;;;14.40;8.40;;;;;;;;;;103849;1295;545674;-73
2023/09/06 20:19:45;;;;;;;13.50;8.00;;;;;;;;;;104227;1284;545389;-74
2023/09/06 20:23:23;;;;;;;15.40;8.00;;;;;;;;;;103776;1292;544837;-76
2023/09/06 20:27:00;;;;;;;13.90;7.40;;;;;;;;;;103954;1291;544976;-74
2023/09/06 20:30:41;;;;;;;12.60;6.90;;;;;;;;;;104012;1291;545338;-74
2023/09/06 20:34:15;;;;;;;12.20;6.90;;;;;;;;;;103734;1290;544776;-75
2023/09/06 20:37:52;;;;;;;12.00;7.50;;;;;;;;;;103725;1295;545364;-74
2023/09/06 20:41:30;;;;;;;10.60;6.90;;;;;;;;;;103739;1292;545248;-75
2023/09/06 20:45:07;;;;;;;15.40;8.80;;;;;;;;;;103657;1290;545009;-74
2023/09/06 20:48:46;;;;;;;17.20;9.60;;;;;;;;;;103793;1302;544852;-74
2023/09/06 20:52:23;;;;;;;15.60;8.80;;;;;;;;;;103743;1292;545295;-74
2023/09/06 20:55:56;;;;;;;15.90;8.10;;;;;;;;;;103662;1291;545325;-76
2023/09/06 20:59:37;;;;;;;16.40;8.30;;;;;;;;;;103869;1292;544874;-76